Time;durP1;ratioP1;P1;durP2;ratioP2;P2;SDS_P1;SDS_P2;PMS_P1;PMS_P2;Temp;Humidity;BMP_temperature;BMP_pressure;BME280_temperature;BME280_humidity;BME280_pressure;Samples;Min_cycle;Max_cycle;Signal;HPM_P1;HPM_P2
2023/06/07 00:01:33;;;;;;;;;;;;;;;;;;5090693;28;19924;-60
2023/06/07 00:03:59;;;;;;;;;;;;;;;;;;5090395;28;19928;-60
2023/06/07 00:06:25;;;;;;;;;;;;;;;;;;5072135;28;19965;-60
2023/06/07 00:08:52;;;;;;;;;;;;;;;;;;5090852;28;19992;-60
2023/06/07 00:11:20;;;;;;;;;;;;;;;;;;5090733;28;20052;-60
2023/06/07 00:13:46;;;;;;;;;;;;;;;;;;5089967;28;20384;-60
2023/06/07 00:16:12;;;;;;;;;;;;;;;;;;5090746;28;20074;-60
2023/06/07 00:18:38;;;;;;;;;;;;;;;;;;5090665;28;19963;-60
2023/06/07 00:21:04;;;;;;;;;;;;;;;;;;5089869;28;20028;-60
2023/06/07 00:23:30;;;;;;;;;;;;;;;;;;5090413;28;19931;-60
2023/06/07 00:25:59;;;;;;;;;;;;;;;;;;5081506;28;19948;-60
2023/06/07 00:28:25;;;;;;;;;;;;;;;;;;5071076;28;19970;-61
2023/06/07 00:30:51;;;;;;;;;;;;;;;;;;5093839;28;19924;-61
2023/06/07 00:33:17;;;;;;;;;;;;;;;;;;5094400;28;20052;-61
2023/06/07 00:35:43;;;;;;;;;;;;;;;;;;5093828;28;19924;-60
2023/06/07 00:38:09;;;;;;;;;;;;;;;;;;5094393;28;19978;-60
2023/06/07 00:40:35;;;;;;;;;;;;;;;;;;5094478;28;19924;-60
2023/06/07 00:43:01;;;;;;;;;;;;;;;;;;5093733;28;19943;-60
2023/06/07 00:45:27;;;;;;;;;;;;;;;;;;5094331;28;19979;-60
2023/06/07 00:47:53;;;;;;;;;;;;;;;;;;5094324;28;19920;-60
2023/06/07 00:50:19;;;;;;;;;;;;;;;;;;5093821;28;19957;-60
2023/06/07 00:52:45;;;;;;;;;;;;;;;;;;5093790;28;20287;-60
2023/06/07 00:55:11;;;;;;;;;;;;;;;;;;5094083;28;19930;-60
2023/06/07 00:57:38;;;;;;;;;;;;;;;;;;5093722;28;19926;-60
2023/06/07 01:00:09;;;;;;;;;;;;;;;;;;5094047;28;19982;-60
2023/06/07 01:02:35;;;;;;;;;;;;;;;;;;5093875;28;19947;-60
2023/06/07 01:05:03;;;;;;;;;;;;;;;;;;5093645;28;20543;-60
2023/06/07 01:07:29;;;;;;;;;;;;;;;;;;5093841;28;20046;-60
2023/06/07 01:09:55;;;;;;;;;;;;;;;;;;5093734;28;20010;-60
2023/06/07 01:12:21;;;;;;;;;;;;;;;;;;5093506;28;19919;-60
2023/06/07 01:14:47;;;;;;;;;;;;;;;;;;5093326;28;19942;-60
2023/06/07 01:17:14;;;;;;;;;;;;;;;;;;5093425;28;19950;-60
2023/06/07 01:19:42;;;;;;;;;;;;;;;;;;5093434;28;19978;-61
2023/06/07 01:22:10;;;;;;;;;;;;;;;;;;5092921;28;20312;-60
2023/06/07 01:24:37;;;;;;;;;;;;;;;;;;5093207;28;19928;-60
2023/06/07 01:27:03;;;;;;;;;;;;;;;;;;5075348;28;20023;-60
2023/06/07 01:29:29;;;;;;;;;;;;;;;;;;5062311;28;20050;-60
2023/06/07 01:31:55;;;;;;;;;;;;;;;;;;5093541;28;20371;-60
2023/06/07 01:34:21;;;;;;;;;;;;;;;;;;5093213;28;20039;-60
2023/06/07 01:36:47;;;;;;;;;;;;;;;;;;5092753;28;19924;-60
2023/06/07 01:39:14;;;;;;;;;;;;;;;;;;5092423;28;19924;-60
2023/06/07 01:41:39;;;;;;;;;;;;;;;;;;5092698;28;19924;-60
2023/06/07 01:44:05;;;;;;;;;;;;;;;;;;5092575;28;19972;-60
2023/06/07 01:46:31;;;;;;;;;;;;;;;;;;5092982;28;20001;-61
2023/06/07 01:48:57;;;;;;;;;;;;;;;;;;5074954;28;19931;-60
2023/06/07 01:51:23;;;;;;;;;;;;;;;;;;5092474;28;19920;-60
2023/06/07 01:53:52;;;;;;;;;;;;;;;;;;5092619;28;20023;-60
2023/06/07 01:56:18;;;;;;;;;;;;;;;;;;5092917;28;20072;-60
2023/06/07 01:58:44;;;;;;;;;;;;;;;;;;5092360;28;20379;-60
2023/06/07 02:01:10;;;;;;;;;;;;;;;;;;5092755;28;19924;-60
2023/06/07 02:03:36;;;;;;;;;;;;;;;;;;5092650;28;19930;-60
2023/06/07 02:06:02;;;;;;;;;;;;;;;;;;5091953;28;19931;-60
2023/06/07 02:08:28;;;;;;;;;;;;;;;;;;5074541;28;19935;-60
2023/06/07 02:10:54;;;;;;;;;;;;;;;;;;5092756;28;19920;-60
2023/06/07 02:13:20;;;;;;;;;;;;;;;;;;5091830;28;19920;-60
2023/06/07 02:15:46;;;;;;;;;;;;;;;;;;5092871;28;19920;-60
2023/06/07 02:18:12;;;;;;;;;;;;;;;;;;5092552;28;19947;-60
2023/06/07 02:20:38;;;;;;;;;;;;;;;;;;5091920;28;20286;-60
2023/06/07 02:23:04;;;;;;;;;;;;;;;;;;5092321;28;19924;-60
2023/06/07 02:25:30;;;;;;;;;;;;;;;;;;5087280;28;19928;-60
2023/06/07 02:27:57;;;;;;;;;;;;;;;;;;5071812;28;19924;-60
2023/06/07 02:30:23;;;;;;;;;;;;;;;;;;5087511;28;19985;-60
2023/06/07 02:32:49;;;;;;;;;;;;;;;;;;5092148;28;19924;-60
2023/06/07 02:35:15;;;;;;;;;;;;;;;;;;5091663;28;19928;-60
2023/06/07 02:37:41;;;;;;;;;;;;;;;;;;5092097;28;20536;-60
2023/06/07 02:40:10;;;;;;;;;;;;;;;;;;5092155;28;19920;-60
2023/06/07 02:42:36;;;;;;;;;;;;;;;;;;5073099;28;20028;-60
2023/06/07 02:45:02;;;;;;;;;;;;;;;;;;5091783;28;19928;-61
2023/06/07 02:47:28;;;;;;;;;;;;;;;;;;5091942;28;19947;-61
2023/06/07 02:49:55;;;;;;;;;;;;;;;;;;5091405;28;20358;-61
2023/06/07 02:52:21;;;;;;;;;;;;;;;;;;5091283;28;19927;-61
2023/06/07 02:54:47;;;;;;;;;;;;;;;;;;5091980;28;19966;-61
2023/06/07 02:57:13;;;;;;;;;;;;;;;;;;5091252;28;19959;-61
2023/06/07 02:59:39;;;;;;;;;;;;;;;;;;5091620;28;19928;-61
2023/06/07 03:02:05;;;;;;;;;;;;;;;;;;5091641;28;19920;-61
2023/06/07 03:04:31;;;;;;;;;;;;;;;;;;5090962;28;19920;-60
2023/06/07 03:06:58;;;;;;;;;;;;;;;;;;5073589;28;19927;-61
2023/06/07 03:09:24;;;;;;;;;;;;;;;;;;5091532;28;19920;-60
2023/06/07 03:11:50;;;;;;;;;;;;;;;;;;5091016;28;19924;-61
2023/06/07 03:14:19;;;;;;;;;;;;;;;;;;5091253;28;20010;-61
2023/06/07 03:16:45;;;;;;;;;;;;;;;;;;5091531;28;20442;-61
2023/06/07 03:19:11;;;;;;;;;;;;;;;;;;5072467;28;19924;-61
2023/06/07 03:21:38;;;;;;;;;;;;;;;;;;5091266;28;19921;-61
2023/06/07 03:24:03;;;;;;;;;;;;;;;;;;5090899;28;19931;-60
2023/06/07 03:26:31;;;;;;;;;;;;;;;;;;5077347;28;19925;-61
2023/06/07 03:28:57;;;;;;;;;;;;;;;;;;5074495;28;19920;-61
2023/06/07 03:31:25;;;;;;;;;;;;;;;;;;5091151;28;20057;-61
2023/06/07 03:33:53;;;;;;;;;;;;;;;;;;5089750;28;21274;-61
2023/06/07 03:36:29;;;;;;;;;;;;;;;;;;5090978;28;20645;-61
2023/06/07 03:38:55;;;;;;;;;;;;;;;;;;5090633;28;19936;-61
2023/06/07 03:41:21;;;;;;;;;;;;;;;;;;5090506;28;19924;-61
2023/06/07 03:43:47;;;;;;;;;;;;;;;;;;5091016;28;19924;-61
2023/06/07 03:46:13;;;;;;;;;;;;;;;;;;5090927;28;19994;-61
2023/06/07 03:48:39;;;;;;;;;;;;;;;;;;5090547;28;20014;-61
2023/06/07 03:51:05;;;;;;;;;;;;;;;;;;5090882;28;19928;-61
2023/06/07 03:53:31;;;;;;;;;;;;;;;;;;5072180;28;20328;-61
2023/06/07 03:55:57;;;;;;;;;;;;;;;;;;5072158;28;19928;-61
2023/06/07 03:58:24;;;;;;;;;;;;;;;;;;5090791;28;19950;-60
2023/06/07 04:00:51;;;;;;;;;;;;;;;;;;5090536;28;19928;-60
2023/06/07 04:03:21;;;;;;;;;;;;;;;;;;5089444;28;20429;-60
2023/06/07 04:05:47;;;;;;;;;;;;;;;;;;5090639;28;20595;-61
2023/06/07 04:08:16;;;;;;;;;;;;;;;;;;5073071;28;19919;-61
2023/06/07 04:10:42;;;;;;;;;;;;;;;;;;5089770;28;20577;-60
2023/06/07 04:13:08;;;;;;;;;;;;;;;;;;5090511;28;19921;-60
2023/06/07 04:15:34;;;;;;;;;;;;;;;;;;5072627;28;19920;-61
2023/06/07 04:18:00;;;;;;;;;;;;;;;;;;5090173;28;19955;-60
2023/06/07 04:20:25;;;;;;;;;;;;;;;;;;5090765;28;19924;-61
2023/06/07 04:22:52;;;;;;;;;;;;;;;;;;5090357;28;19927;-61
2023/06/07 04:25:18;;;;;;;;;;;;;;;;;;5086831;28;20027;-61
2023/06/07 04:27:47;;;;;;;;;;;;;;;;;;5070265;28;20066;-61
2023/06/07 04:30:15;;;;;;;;;;;;;;;;;;5084314;28;19985;-61
2023/06/07 04:32:43;;;;;;;;;;;;;;;;;;5071411;28;19931;-61
2023/06/07 04:35:09;;;;;;;;;;;;;;;;;;5090361;28;19924;-61
2023/06/07 04:37:35;;;;;;;;;;;;;;;;;;5090210;28;19920;-61
2023/06/07 04:40:03;;;;;;;;;;;;;;;;;;5071605;28;19932;-61
2023/06/07 04:42:30;;;;;;;;;;;;;;;;;;5090692;28;20081;-61
2023/06/07 04:45:00;;;;;;;;;;;;;;;;;;5090736;28;19951;-60
2023/06/07 04:47:27;;;;;;;;;;;;;;;;;;5090267;28;19943;-61
2023/06/07 04:49:53;;;;;;;;;;;;;;;;;;5090684;28;19956;-61
2023/06/07 04:52:19;;;;;;;;;;;;;;;;;;5090669;28;19924;-61
2023/06/07 04:54:46;;;;;;;;;;;;;;;;;;5090074;28;19924;-61
2023/06/07 04:57:13;;;;;;;;;;;;;;;;;;5090060;28;19931;-60
2023/06/07 04:59:42;;;;;;;;;;;;;;;;;;5055614;28;19939;-61
2023/06/07 05:02:08;;;;;;;;;;;;;;;;;;5089852;28;19928;-61
2023/06/07 05:04:34;;;;;;;;;;;;;;;;;;5090405;28;19924;-61
2023/06/07 05:07:00;;;;;;;;;;;;;;;;;;5058630;28;19924;-62
2023/06/07 05:09:26;;;;;;;;;;;;;;;;;;5089794;28;19982;-62
2023/06/07 05:11:52;;;;;;;;;;;;;;;;;;5090180;28;19959;-62
2023/06/07 05:14:18;;;;;;;;;;;;;;;;;;5085884;28;19947;-61
2023/06/07 05:16:45;;;;;;;;;;;;;;;;;;5074851;28;20002;-61
2023/06/07 05:19:11;;;;;;;;;;;;;;;;;;5093906;28;20381;-61
2023/06/07 05:21:37;;;;;;;;;;;;;;;;;;5093370;28;19920;-61
2023/06/07 05:24:03;;;;;;;;;;;;;;;;;;5093078;28;19927;-60
2023/06/07 05:26:29;;;;;;;;;;;;;;;;;;5093466;28;19920;-61
2023/06/07 05:28:55;;;;;;;;;;;;;;;;;;5093681;28;19920;-61
2023/06/07 05:31:22;;;;;;;;;;;;;;;;;;5093727;28;19952;-61
2023/06/07 05:33:48;;;;;;;;;;;;;;;;;;5092958;28;20558;-61
2023/06/07 05:36:14;;;;;;;;;;;;;;;;;;5093349;28;19924;-61
2023/06/07 05:38:40;;;;;;;;;;;;;;;;;;5074997;28;20361;-61
2023/06/07 05:41:06;;;;;;;;;;;;;;;;;;5092911;28;19920;-61
2023/06/07 05:43:32;;;;;;;;;;;;;;;;;;5093466;28;19921;-61
2023/06/07 05:45:58;;;;;;;;;;;;;;;;;;5093255;28;19928;-61
2023/06/07 05:48:24;;;;;;;;;;;;;;;;;;5092791;28;19947;-61
2023/06/07 05:50:52;;;;;;;;;;;;;;;;;;5093122;28;19924;-61
2023/06/07 05:53:17;;;;;;;;;;;;;;;;;;5093003;28;19921;-61
2023/06/07 05:55:45;;;;;;;;;;;;;;;;;;5092621;28;19924;-61
2023/06/07 05:58:11;;;;;;;;;;;;;;;;;;5072745;28;19924;-62
2023/06/07 06:00:37;;;;;;;;;;;;;;;;;;5079091;28;20284;-61
2023/06/07 06:03:04;;;;;;;;;;;;;;;;;;5092557;28;19920;-61
2023/06/07 06:05:30;;;;;;;;;;;;;;;;;;5092992;28;19988;-61
2023/06/07 06:07:56;;;;;;;;;;;;;;;;;;5092773;28;19924;-61
2023/06/07 06:10:22;;;;;;;;;;;;;;;;;;5086175;28;19928;-62
2023/06/07 06:12:48;;;;;;;;;;;;;;;;;;5073191;28;19929;-66
2023/06/07 06:15:14;;;;;;;;;;;;;;;;;;5065593;28;20049;-64
2023/06/07 06:17:40;;;;;;;;;;;;;;;;;;5079959;28;19931;-64
2023/06/07 06:20:07;;;;;;;;;;;;;;;;;;5055225;28;19924;-62
2023/06/07 06:22:33;;;;;;;;;;;;;;;;;;5091260;28;19920;-64
2023/06/07 06:24:59;;;;;;;;;;;;;;;;;;5080160;28;19928;-65
2023/06/07 06:27:25;;;;;;;;;;;;;;;;;;5089978;28;19927;-62
2023/06/07 06:29:51;;;;;;;;;;;;;;;;;;5066106;28;19979;-62
2023/06/07 06:32:17;;;;;;;;;;;;;;;;;;5091395;28;19924;-62
2023/06/07 06:34:44;;;;;;;;;;;;;;;;;;5090140;28;19967;-63
2023/06/07 06:37:10;;;;;;;;;;;;;;;;;;5091530;28;19923;-64
2023/06/07 06:39:36;;;;;;;;;;;;;;;;;;5090856;28;19981;-62
2023/06/07 06:42:02;;;;;;;;;;;;;;;;;;5073139;28;19920;-63
2023/06/07 06:44:28;;;;;;;;;;;;;;;;;;5090945;28;19920;-63
2023/06/07 06:46:54;;;;;;;;;;;;;;;;;;5072203;28;19924;-61
2023/06/07 06:49:19;;;;;;;;;;;;;;;;;;5077586;28;19924;-60
2023/06/07 06:51:45;;;;;;;;;;;;;;;;;;5081928;28;19967;-63
2023/06/07 06:54:12;;;;;;;;;;;;;;;;;;5083188;28;20011;-62
2023/06/07 06:56:38;;;;;;;;;;;;;;;;;;5075269;28;19924;-65
2023/06/07 06:59:03;;;;;;;;;;;;;;;;;;5090723;28;19928;-63
2023/06/07 07:01:29;;;;;;;;;;;;;;;;;;5087049;28;19924;-63
2023/06/07 07:03:55;;;;;;;;;;;;;;;;;;5087340;28;19924;-62
2023/06/07 07:06:22;;;;;;;;;;;;;;;;;;5071031;28;20137;-62
2023/06/07 07:08:48;;;;;;;;;;;;;;;;;;5090646;28;19928;-64
2023/06/07 07:11:14;;;;;;;;;;;;;;;;;;5086801;28;19973;-63
2023/06/07 07:13:40;;;;;;;;;;;;;;;;;;5081783;28;19925;-62
2023/06/07 07:16:06;;;;;;;;;;;;;;;;;;5082490;28;19957;-65
2023/06/07 07:18:32;;;;;;;;;;;;;;;;;;5083162;28;19981;-65
2023/06/07 07:20:58;;;;;;;;;;;;;;;;;;5075207;28;19935;-64
2023/06/07 07:23:24;;;;;;;;;;;;;;;;;;5084768;28;19930;-65
2023/06/07 07:25:50;;;;;;;;;;;;;;;;;;5060181;28;20343;-63
2023/06/07 07:28:17;;;;;;;;;;;;;;;;;;5073043;28;19964;-62
2023/06/07 07:30:43;;;;;;;;;;;;;;;;;;5070374;28;19968;-63
2023/06/07 07:33:09;;;;;;;;;;;;;;;;;;5090332;28;19923;-63
2023/06/07 07:35:35;;;;;;;;;;;;;;;;;;5089947;28;19923;-63
2023/06/07 07:38:01;;;;;;;;;;;;;;;;;;5077976;28;19920;-61
2023/06/07 07:40:27;;;;;;;;;;;;;;;;;;5062035;28;20010;-62
2023/06/07 07:42:53;;;;;;;;;;;;;;;;;;5083653;28;19923;-63
2023/06/07 07:45:19;;;;;;;;;;;;;;;;;;5077875;28;19931;-63
2023/06/07 07:47:45;;;;;;;;;;;;;;;;;;5086218;28;19924;-62
2023/06/07 07:50:11;;;;;;;;;;;;;;;;;;5081946;28;19924;-65
2023/06/07 07:52:37;;;;;;;;;;;;;;;;;;5083495;28;19977;-64
2023/06/07 07:55:03;;;;;;;;;;;;;;;;;;5072226;28;19932;-63
2023/06/07 07:57:29;;;;;;;;;;;;;;;;;;5077225;28;19924;-65
2023/06/07 07:59:55;;;;;;;;;;;;;;;;;;5081490;28;20385;-67
2023/06/07 08:02:22;;;;;;;;;;;;;;;;;;5065749;28;19931;-63
2023/06/07 08:04:48;;;;;;;;;;;;;;;;;;5078969;28;19928;-64
2023/06/07 08:07:15;;;;;;;;;;;;;;;;;;5078394;28;19920;-65
2023/06/07 08:09:41;;;;;;;;;;;;;;;;;;5078691;28;19959;-64
2023/06/07 08:12:07;;;;;;;;;;;;;;;;;;5087479;28;19973;-64
2023/06/07 08:14:33;;;;;;;;;;;;;;;;;;5052462;28;19924;-65
2023/06/07 08:16:59;;;;;;;;;;;;;;;;;;5080235;28;19949;-65
2023/06/07 08:19:26;;;;;;;;;;;;;;;;;;5074448;28;19955;-63
2023/06/07 08:21:52;;;;;;;;;;;;;;;;;;5084813;28;19928;-63
2023/06/07 08:24:18;;;;;;;;;;;;;;;;;;5077703;28;19928;-64
2023/06/07 08:26:48;;;;;;;;;;;;;;;;;;5083482;28;19920;-63
2023/06/07 08:29:14;;;;;;;;;;;;;;;;;;5076797;28;19928;-65
2023/06/07 08:31:43;;;;;;;;;;;;;;;;;;5077854;28;19924;-66
2023/06/07 08:34:09;;;;;;;;;;;;;;;;;;5088817;28;19962;-64
2023/06/07 08:36:36;;;;;;;;;;;;;;;;;;5065848;28;19931;-66
2023/06/07 08:39:02;;;;;;;;;;;;;;;;;;5083435;28;20562;-63
2023/06/07 08:41:28;;;;;;;;;;;;;;;;;;5076506;28;19920;-64
2023/06/07 08:43:54;;;;;;;;;;;;;;;;;;5037408;28;19959;-63
2023/06/07 08:46:20;;;;;;;;;;;;;;;;;;5083019;28;19924;-64
2023/06/07 08:48:46;;;;;;;;;;;;;;;;;;5089504;28;19920;-64
2023/06/07 08:51:12;;;;;;;;;;;;;;;;;;5089593;28;20342;-63
2023/06/07 08:53:38;;;;;;;;;;;;;;;;;;5081385;28;19924;-65
2023/06/07 08:56:04;;;;;;;;;;;;;;;;;;5087950;28;19939;-63
2023/06/07 08:58:30;;;;;;;;;;;;;;;;;;5068142;28;19985;-64
2023/06/07 09:00:56;;;;;;;;;;;;;;;;;;5089493;28;21099;-63
2023/06/07 09:03:22;;;;;;;;;;;;;;;;;;5082828;28;19928;-63
2023/06/07 09:05:48;;;;;;;;;;;;;;;;;;5080181;28;19920;-63
2023/06/07 09:08:14;;;;;;;;;;;;;;;;;;5085400;28;20003;-64
2023/06/07 09:10:40;;;;;;;;;;;;;;;;;;5077834;28;19931;-62
2023/06/07 09:13:05;;;;;;;;;;;;;;;;;;5083811;28;19924;-62
2023/06/07 09:15:31;;;;;;;;;;;;;;;;;;5068477;28;19920;-62
2023/06/07 09:18:02;;;;;;;;;;;;;;;;;;5087550;28;20012;-70
2023/06/07 09:20:28;;;;;;;;;;;;;;;;;;5058581;28;19935;-64
2023/06/07 09:22:54;;;;;;;;;;;;;;;;;;5084397;28;20275;-64
2023/06/07 09:25:19;;;;;;;;;;;;;;;;;;5090142;28;19935;-64
2023/06/07 09:27:45;;;;;;;;;;;;;;;;;;5092290;28;19963;-64
2023/06/07 09:30:14;;;;;;;;;;;;;;;;;;5081393;28;19924;-64
2023/06/07 09:32:40;;;;;;;;;;;;;;;;;;5091392;28;20374;-63
2023/06/07 09:35:06;;;;;;;;;;;;;;;;;;5086321;28;20003;-64
2023/06/07 09:37:32;;;;;;;;;;;;;;;;;;5062692;28;19924;-62
2023/06/07 09:39:58;;;;;;;;;;;;;;;;;;5066440;28;20019;-65
2023/06/07 09:42:24;;;;;;;;;;;;;;;;;;5058132;28;19928;-65
2023/06/07 09:44:50;;;;;;;;;;;;;;;;;;5085047;28;19924;-64
2023/06/07 09:47:16;;;;;;;;;;;;;;;;;;5084232;28;19924;-64
2023/06/07 09:49:42;;;;;;;;;;;;;;;;;;5081526;28;19924;-65
2023/06/07 09:52:08;;;;;;;;;;;;;;;;;;5083069;28;19946;-64
2023/06/07 09:54:33;;;;;;;;;;;;;;;;;;5070940;28;19924;-64
2023/06/07 09:56:59;;;;;;;;;;;;;;;;;;5077444;28;20024;-64
2023/06/07 09:59:25;;;;;;;;;;;;;;;;;;5082594;28;19924;-65
2023/06/07 10:01:52;;;;;;;;;;;;;;;;;;5074949;28;19928;-64
2023/06/07 10:04:18;;;;;;;;;;;;;;;;;;5087574;28;20014;-65
2023/06/07 10:06:44;;;;;;;;;;;;;;;;;;5087810;28;20412;-64
2023/06/07 10:09:10;;;;;;;;;;;;;;;;;;5060799;28;19929;-62
2023/06/07 10:11:37;;;;;;;;;;;;;;;;;;5090660;28;20011;-64
2023/06/07 10:14:03;;;;;;;;;;;;;;;;;;5090278;28;19924;-64
2023/06/07 10:16:29;;;;;;;;;;;;;;;;;;5081349;28;20306;-65
2023/06/07 10:18:56;;;;;;;;;;;;;;;;;;5065603;28;19924;-66
2023/06/07 10:21:22;;;;;;;;;;;;;;;;;;5061063;28;20374;-65
2023/06/07 10:23:48;;;;;;;;;;;;;;;;;;5082894;28;19920;-64
2023/06/07 10:26:14;;;;;;;;;;;;;;;;;;5078055;28;19931;-63
2023/06/07 10:28:40;;;;;;;;;;;;;;;;;;5082977;28;19951;-64
2023/06/07 10:31:08;;;;;;;;;;;;;;;;;;5081893;28;19920;-66
2023/06/07 10:33:34;;;;;;;;;;;;;;;;;;5060060;28;19932;-64
2023/06/07 10:36:00;;;;;;;;;;;;;;;;;;5083771;28;19928;-67
2023/06/07 10:38:26;;;;;;;;;;;;;;;;;;5081870;28;19928;-66
2023/06/07 10:40:51;;;;;;;;;;;;;;;;;;5060317;28;20029;-64
2023/06/07 10:43:17;;;;;;;;;;;;;;;;;;5086118;28;19920;-65
2023/06/07 10:45:43;;;;;;;;;;;;;;;;;;5085714;28;19924;-63
2023/06/07 10:48:09;;;;;;;;;;;;;;;;;;5080606;28;19928;-67
2023/06/07 10:50:35;;;;;;;;;;;;;;;;;;5075350;28;19927;-67
2023/06/07 10:53:01;;;;;;;;;;;;;;;;;;5085829;28;19924;-67
2023/06/07 10:55:30;;;;;;;;;;;;;;;;;;5080235;28;19956;-66
2023/06/07 10:57:56;;;;;;;;;;;;;;;;;;5082507;28;19928;-66
2023/06/07 11:00:22;;;;;;;;;;;;;;;;;;5076350;28;19974;-65
2023/06/07 11:02:47;;;;;;;;;;;;;;;;;;5083788;28;19924;-66
2023/06/07 11:05:14;;;;;;;;;;;;;;;;;;5088918;28;19923;-66
2023/06/07 11:07:41;;;;;;;;;;;;;;;;;;5090297;28;19978;-68
2023/06/07 11:10:07;;;;;;;;;;;;;;;;;;5089706;28;19924;-68
2023/06/07 11:12:33;;;;;;;;;;;;;;;;;;5089448;28;19989;-68
2023/06/07 11:14:59;;;;;;;;;;;;;;;;;;5084132;28;19929;-67
2023/06/07 11:17:25;;;;;;;;;;;;;;;;;;5088067;28;19928;-67
2023/06/07 11:19:51;;;;;;;;;;;;;;;;;;5065879;28;20031;-67
2023/06/07 11:22:17;;;;;;;;;;;;;;;;;;5076961;28;19920;-68
2023/06/07 11:24:43;;;;;;;;;;;;;;;;;;5078615;28;20321;-67
2023/06/07 11:27:10;;;;;;;;;;;;;;;;;;5078316;28;19927;-67
2023/06/07 11:29:36;;;;;;;;;;;;;;;;;;5081018;28;19920;-67
2023/06/07 11:32:02;;;;;;;;;;;;;;;;;;5063649;28;19920;-67
2023/06/07 11:34:29;;;;;;;;;;;;;;;;;;5076609;28;19978;-65
2023/06/07 11:36:55;;;;;;;;;;;;;;;;;;5090376;28;19920;-65
2023/06/07 11:39:21;;;;;;;;;;;;;;;;;;5085852;28;19985;-65
2023/06/07 11:41:48;;;;;;;;;;;;;;;;;;5088756;28;19977;-66
2023/06/07 11:44:14;;;;;;;;;;;;;;;;;;5084682;28;20298;-65
2023/06/07 11:46:40;;;;;;;;;;;;;;;;;;5081947;28;20378;-66
2023/06/07 11:49:06;;;;;;;;;;;;;;;;;;5075188;28;19925;-64
2023/06/07 11:51:33;;;;;;;;;;;;;;;;;;5077439;28;19993;-64
2023/06/07 11:53:59;;;;;;;;;;;;;;;;;;5076591;28;20362;-62
2023/06/07 11:56:28;;;;;;;;;;;;;;;;;;5073883;28;19920;-64
2023/06/07 11:58:54;;;;;;;;;;;;;;;;;;5083643;28;19973;-64
2023/06/07 12:01:20;;;;;;;;;;;;;;;;;;5069418;28;19928;-63
2023/06/07 12:03:46;;;;;;;;;;;;;;;;;;5086652;28;20349;-63
2023/06/07 12:06:13;;;;;;;;;;;;;;;;;;5083449;28;20387;-64
2023/06/07 12:08:38;;;;;;;;;;;;;;;;;;5078413;28;19968;-63
2023/06/07 12:11:04;;;;;;;;;;;;;;;;;;5077811;28;19974;-64
2023/06/07 12:13:31;;;;;;;;;;;;;;;;;;5052088;28;19959;-66
2023/06/07 12:15:57;;;;;;;;;;;;;;;;;;5066126;28;19927;-64
2023/06/07 12:18:23;;;;;;;;;;;;;;;;;;5088835;28;19932;-65
2023/06/07 12:20:49;;;;;;;;;;;;;;;;;;5064802;28;19950;-66
2023/06/07 12:23:15;;;;;;;;;;;;;;;;;;5081699;28;19924;-67
2023/06/07 12:25:41;;;;;;;;;;;;;;;;;;5087111;28;19931;-67
2023/06/07 12:28:07;;;;;;;;;;;;;;;;;;5080041;28;19967;-66
2023/06/07 12:30:33;;;;;;;;;;;;;;;;;;5082717;28;19931;-63
2023/06/07 12:33:00;;;;;;;;;;;;;;;;;;5092769;28;19928;-64
2023/06/07 12:35:26;;;;;;;;;;;;;;;;;;5091658;28;19951;-67
2023/06/07 12:37:53;;;;;;;;;;;;;;;;;;5085594;28;20424;-64
2023/06/07 12:40:19;;;;;;;;;;;;;;;;;;5067972;28;20015;-64
2023/06/07 12:42:46;;;;;;;;;;;;;;;;;;5088269;28;19924;-63
2023/06/07 12:45:11;;;;;;;;;;;;;;;;;;5092696;28;19920;-65
2023/06/07 12:47:37;;;;;;;;;;;;;;;;;;5083211;28;19931;-66
2023/06/07 12:50:05;;;;;;;;;;;;;;;;;;5081016;28;20008;-71
2023/06/07 12:52:31;;;;;;;;;;;;;;;;;;5069288;28;20334;-67
2023/06/07 12:54:57;;;;;;;;;;;;;;;;;;5086275;28;19920;-67
2023/06/07 12:57:23;;;;;;;;;;;;;;;;;;5079182;28;19924;-64
2023/06/07 12:59:49;;;;;;;;;;;;;;;;;;5086958;28;19959;-65
2023/06/07 13:02:15;;;;;;;;;;;;;;;;;;5087491;28;19925;-66
2023/06/07 13:04:40;;;;;;;;;;;;;;;;;;5085615;28;19931;-64
2023/06/07 13:07:07;;;;;;;;;;;;;;;;;;5076673;28;19959;-64
2023/06/07 13:09:33;;;;;;;;;;;;;;;;;;5084859;28;20351;-63
2023/06/07 13:12:02;;;;;;;;;;;;;;;;;;5091605;28;19935;-62
2023/06/07 13:14:28;;;;;;;;;;;;;;;;;;5087223;28;20354;-69
2023/06/07 13:16:54;;;;;;;;;;;;;;;;;;5069411;28;19970;-62
2023/06/07 13:19:20;;;;;;;;;;;;;;;;;;5080623;28;19927;-64
2023/06/07 13:21:47;;;;;;;;;;;;;;;;;;5057960;28;19942;-64
2023/06/07 13:24:13;;;;;;;;;;;;;;;;;;5083515;28;19928;-62
2023/06/07 13:26:39;;;;;;;;;;;;;;;;;;5082934;28;19951;-63
2023/06/07 13:29:05;;;;;;;;;;;;;;;;;;5083060;28;19920;-63
2023/06/07 13:31:31;;;;;;;;;;;;;;;;;;5092828;28;19920;-62
2023/06/07 13:33:57;;;;;;;;;;;;;;;;;;5091617;28;19985;-63
2023/06/07 13:36:23;;;;;;;;;;;;;;;;;;5091917;28;20041;-62
2023/06/07 13:38:49;;;;;;;;;;;;;;;;;;5092390;28;19932;-63
2023/06/07 13:41:15;;;;;;;;;;;;;;;;;;5091872;28;19924;-63
2023/06/07 13:43:41;;;;;;;;;;;;;;;;;;5073694;28;19928;-63
2023/06/07 13:46:07;;;;;;;;;;;;;;;;;;5092364;28;20547;-64
2023/06/07 13:48:35;;;;;;;;;;;;;;;;;;5091798;28;20374;-62
2023/06/07 13:51:04;;;;;;;;;;;;;;;;;;5086456;28;19920;-62
2023/06/07 13:53:29;;;;;;;;;;;;;;;;;;5087282;28;19928;-62
2023/06/07 13:55:56;;;;;;;;;;;;;;;;;;5073465;28;19931;-63
2023/06/07 13:58:22;;;;;;;;;;;;;;;;;;5092184;28;19924;-62
2023/06/07 14:00:48;;;;;;;;;;;;;;;;;;5092328;28;19927;-64
2023/06/07 14:03:14;;;;;;;;;;;;;;;;;;5091133;28;19920;-64
2023/06/07 14:05:40;;;;;;;;;;;;;;;;;;5092264;28;19928;-64
2023/06/07 14:08:06;;;;;;;;;;;;;;;;;;5091759;28;19923;-63
2023/06/07 14:10:33;;;;;;;;;;;;;;;;;;5091429;28;19920;-64
2023/06/07 14:12:59;;;;;;;;;;;;;;;;;;5091974;28;19931;-65
2023/06/07 14:15:26;;;;;;;;;;;;;;;;;;5092007;28;19932;-65
2023/06/07 14:17:52;;;;;;;;;;;;;;;;;;5091596;28;19967;-63
2023/06/07 14:20:18;;;;;;;;;;;;;;;;;;5092163;28;20008;-64
2023/06/07 14:22:44;;;;;;;;;;;;;;;;;;5091264;28;19919;-63
2023/06/07 14:25:10;;;;;;;;;;;;;;;;;;5072947;28;20435;-63
2023/06/07 14:27:36;;;;;;;;;;;;;;;;;;5091975;28;19920;-64
2023/06/07 14:30:02;;;;;;;;;;;;;;;;;;5091477;28;20489;-64
2023/06/07 14:32:29;;;;;;;;;;;;;;;;;;5091011;28;20034;-64
2023/06/07 14:34:55;;;;;;;;;;;;;;;;;;5091504;28;19927;-64
2023/06/07 14:37:21;;;;;;;;;;;;;;;;;;5091486;28;19923;-63
2023/06/07 14:39:47;;;;;;;;;;;;;;;;;;5090268;28;19924;-66
2023/06/07 14:42:13;;;;;;;;;;;;;;;;;;5091693;28;19930;-64
2023/06/07 14:44:39;;;;;;;;;;;;;;;;;;5091445;28;19928;-65
2023/06/07 14:47:05;;;;;;;;;;;;;;;;;;5090640;28;19927;-64
2023/06/07 14:49:32;;;;;;;;;;;;;;;;;;5087396;28;20406;-64
2023/06/07 14:51:58;;;;;;;;;;;;;;;;;;5071340;28;20291;-64
2023/06/07 14:54:24;;;;;;;;;;;;;;;;;;5070452;28;19925;-64
2023/06/07 14:56:50;;;;;;;;;;;;;;;;;;5071145;28;19920;-64
2023/06/07 14:59:16;;;;;;;;;;;;;;;;;;5071225;28;19928;-64
2023/06/07 15:01:42;;;;;;;;;;;;;;;;;;5070530;28;19982;-64
2023/06/07 15:04:08;;;;;;;;;;;;;;;;;;5071270;28;20011;-64
2023/06/07 15:06:34;;;;;;;;;;;;;;;;;;5071401;28;19924;-64
2023/06/07 15:09:00;;;;;;;;;;;;;;;;;;5052648;28;19929;-64
2023/06/07 15:11:26;;;;;;;;;;;;;;;;;;5070914;28;19928;-66
2023/06/07 15:13:52;;;;;;;;;;;;;;;;;;5070673;28;19920;-65
2023/06/07 15:16:18;;;;;;;;;;;;;;;;;;5070426;28;19928;-61
2023/06/07 15:18:44;;;;;;;;;;;;;;;;;;5070961;28;19950;-61
2023/06/07 15:21:10;;;;;;;;;;;;;;;;;;5071078;28;19935;-61
2023/06/07 15:23:36;;;;;;;;;;;;;;;;;;5052649;28;19935;-61
2023/06/07 15:26:02;;;;;;;;;;;;;;;;;;5052613;28;20291;-61
2023/06/07 15:28:28;;;;;;;;;;;;;;;;;;5071010;28;19924;-61
2023/06/07 15:30:54;;;;;;;;;;;;;;;;;;5090030;28;19951;-61
2023/06/07 15:33:20;;;;;;;;;;;;;;;;;;5091028;28;19923;-61
2023/06/07 15:35:46;;;;;;;;;;;;;;;;;;5090999;28;20024;-60
2023/06/07 15:38:13;;;;;;;;;;;;;;;;;;5090887;28;19920;-60
2023/06/07 15:40:39;;;;;;;;;;;;;;;;;;5090521;28;19924;-60
2023/06/07 15:43:05;;;;;;;;;;;;;;;;;;5091009;28;19930;-62
2023/06/07 15:45:31;;;;;;;;;;;;;;;;;;5090843;28;19931;-60
2023/06/07 15:48:00;;;;;;;;;;;;;;;;;;5090637;28;19920;-60
2023/06/07 15:50:26;;;;;;;;;;;;;;;;;;5090992;28;19920;-61
2023/06/07 15:52:52;;;;;;;;;;;;;;;;;;5090835;28;19920;-62
2023/06/07 15:55:18;;;;;;;;;;;;;;;;;;5090367;28;19920;-61
2023/06/07 15:57:44;;;;;;;;;;;;;;;;;;5090918;28;19951;-60
2023/06/07 16:00:10;;;;;;;;;;;;;;;;;;5090092;28;19932;-60
2023/06/07 16:02:36;;;;;;;;;;;;;;;;;;5090510;28;19985;-60
2023/06/07 16:05:02;;;;;;;;;;;;;;;;;;5072745;28;19920;-60
2023/06/07 16:07:27;;;;;;;;;;;;;;;;;;5090856;28;20023;-61
2023/06/07 16:09:53;;;;;;;;;;;;;;;;;;5090175;28;19920;-60
2023/06/07 16:12:19;;;;;;;;;;;;;;;;;;5090746;28;20005;-60
2023/06/07 16:14:45;;;;;;;;;;;;;;;;;;5090640;28;19963;-60
2023/06/07 16:17:11;;;;;;;;;;;;;;;;;;5090336;28;19960;-61
2023/06/07 16:19:37;;;;;;;;;;;;;;;;;;5090773;28;19928;-61
2023/06/07 16:22:03;;;;;;;;;;;;;;;;;;5090535;28;19932;-61
2023/06/07 16:24:29;;;;;;;;;;;;;;;;;;5089633;28;20035;-61
2023/06/07 16:26:55;;;;;;;;;;;;;;;;;;5039162;28;19926;-61
2023/06/07 16:29:21;;;;;;;;;;;;;;;;;;5076651;28;19989;-61
2023/06/07 16:31:47;;;;;;;;;;;;;;;;;;5090288;28;19927;-61
2023/06/07 16:34:13;;;;;;;;;;;;;;;;;;5090408;28;19943;-61
2023/06/07 16:36:39;;;;;;;;;;;;;;;;;;5090411;28;19924;-61
2023/06/07 16:39:08;;;;;;;;;;;;;;;;;;5089850;28;19928;-61